Skip to main content

NOAA/GLERL Met Station at Chicago, IL

Previous 5 days (top of hour only)
See also Previous 3 Hours (2 minute increments)
Jump down to Data
Switch to [English][Metric]
Zoom: Click and drag, Pan: shift-click and drag, Unzoom: double-click, Unzoom All




Note: Speed = mean wind during 2-minute period at top of hour,
Gust = max wind during 2-minute period at top of hour,
Peak = max wind during entire hour.
• See also 5-day windrose plot


NOAA/GLERL Met Station at Chicago, IL

Previous 5 days (top of hour only)
See also Previous 3 Hours (2 minute increments)
Jump up to Graphs
Switch to [English][Metric]
                  Wind  Wind  Wind   Air   Dew   Rel
                   Spd   Gst   Dir  Temp    Pt   Hum
YYYY-MM-DD   CDT   kts   kts   deg     F     F     %
2017-03-23 11:00  15.4  17.5   158  35.6  21.2  55.4
2017-03-23 10:00  15.6  18.9   152  34.0  21.2  59.2
2017-03-23 09:00  19.2  21.8   155  33.1  20.8  60.2
2017-03-23 08:00  20.0  23.5   145  32.7  20.8  61.2
2017-03-23 07:00  15.4  18.9   152  32.7  21.4  62.7
2017-03-23 06:00  21.6  25.1   147  33.1  18.6  55.0
2017-03-23 05:00  16.9  21.2   145  33.4  21.0  59.9
2017-03-23 04:00  20.0  22.2   151  33.8  21.4  60.1
2017-03-23 03:00  19.1  23.1   147  34.5  21.7  59.1
2017-03-23 02:00  15.4  18.3   153  34.9  20.8  56.2
2017-03-23 01:00  13.2  14.4   125  34.3  25.7  70.4
2017-03-23 00:00  10.9  12.1    96  33.8  26.3  73.7
2017-03-22 23:00  10.7  12.2    96  33.1  25.0  72.0
2017-03-22 22:00   7.6   8.4   107  32.2  22.7  67.8
2017-03-22 21:00   5.8   6.4   101  31.3  21.3  66.2
2017-03-22 20:00   5.4   6.0    79  30.6  20.0  64.5
2017-03-22 19:00   6.6   8.0    36  29.8  18.9  63.3
2017-03-22 18:00   8.0   9.7    26  29.7  18.8  63.7
2017-03-22 17:00   8.7   9.9    46  28.9  18.5  64.7
2017-03-22 16:00  10.1  11.1    38  28.6  17.9  64.0
2017-03-22 15:00   9.5  11.3    47  28.0  17.6  64.7
2017-03-22 14:00   9.3  10.3    66  27.9  17.2  64.0
2017-03-22 13:00  10.5  12.1    78  28.2  18.0  65.2
2017-03-22 12:00  11.5  13.2    47  28.0  16.0  60.2
2017-03-22 11:00   9.9  10.9    51  28.4  17.2  62.6
2017-03-22 10:00  16.9  18.7    56  28.6  17.2  62.1
2017-03-22 09:00  17.7  20.4    60  28.8  17.9  63.4
2017-03-22 08:00  15.0  16.5    64  29.3  19.1  65.3
2017-03-22 07:00  19.1  21.8    23  29.5  16.7  58.5
2017-03-22 06:00  20.0  26.0    23  29.8  18.5  62.4
2017-03-22 05:00  23.5  27.6    26  29.7  17.6  60.4
2017-03-22 04:00  23.7  26.8    22  30.6  18.7  61.0
2017-03-22 03:00  23.5  28.6    30  30.7  18.6  60.4
2017-03-22 02:00  25.7  27.6    35  31.8  21.3  64.7
2017-03-22 01:00  29.5  32.7    23  32.2  21.9  65.6
2017-03-22 00:00  29.5  31.1    25  32.7  22.1  64.6
2017-03-21 23:00  29.4  30.9    19  33.3  25.0  71.3
2017-03-21 22:00  26.8  29.9    19  33.8  26.4  74.0
2017-03-21 21:00  21.6  23.7    16  35.2  27.9  74.4
2017-03-21 20:00  12.1  13.4    20  36.3  29.3  75.4
2017-03-21 19:00  12.6  14.0    32  36.5  28.9  73.6
2017-03-21 18:00  11.5  13.0    34  37.0  30.5  77.1
2017-03-21 17:00  12.8  14.2    26  37.2  29.4  73.0
2017-03-21 16:00  13.2  14.0    20  37.4  31.2  77.9
2017-03-21 15:00  12.2  14.4     4  38.5  31.2  74.7
2017-03-21 14:00   9.7  10.7   360  39.0  31.0  72.7
2017-03-21 13:00  15.6  16.9    21  39.7  29.3  65.8
2017-03-21 12:00  13.6  15.0    41  40.8  28.4  60.8
2017-03-21 10:00  13.8  14.4   337  43.2  27.0  52.5
2017-03-21 09:00  14.2  15.0   335  43.2  28.8  56.6
2017-03-21 08:00  12.1  12.8   315  43.7  33.1  65.8
2017-03-21 07:00   8.2   8.2   303  43.0  33.8  69.7
2017-03-21 06:00   9.5   9.7   320  42.4  29.6  60.0
2017-03-21 05:00  11.1  11.5   329  41.5  31.4  66.9
2017-03-21 04:00  12.6  13.2   335  41.0  33.0  72.8
2017-03-21 03:00  14.4  15.2   329  41.2  33.8  74.8
2017-03-21 02:00  12.2  12.8   332  40.6  35.4  81.4
2017-03-21 01:00  15.9  16.7   349  40.1  35.4  83.1
2017-03-21 00:00  13.4  14.2   338  39.6  36.4  88.3
2017-03-20 23:00  15.6  16.7   335  38.7  36.7  92.6
2017-03-20 22:00  13.0  13.8   337  38.3  37.0  94.9
2017-03-20 21:00  13.8  14.4   334  38.7  37.9  96.9
2017-03-20 20:00  12.1  12.2   332  38.7  38.2  98.2
2017-03-20 19:00  15.4  16.1   337  39.2  38.8  98.5
2017-03-20 18:00  15.4  15.9   337  38.8  38.4  98.4
2017-03-20 17:00   9.3   9.9   345  38.7  38.3  98.5
2017-03-20 16:00   7.4   7.6   344  38.5  37.8  97.5
2017-03-20 15:00   6.4   6.6   322  38.7  37.5  95.7
2017-03-20 14:00  11.5  11.7    30  43.7  41.5  91.7
2017-03-20 13:00   5.6   6.0    42  45.0  41.8  88.6
2017-03-20 12:00   4.3   4.5    44  42.4  40.3  92.1
2017-03-20 11:00   8.0   8.9   161  43.9  41.2  90.1
2017-03-20 10:00  11.5  12.4   152  40.8  39.7  95.9
2017-03-20 09:00  13.0  13.4   139  39.7  38.9  96.6
2017-03-20 08:00  11.9  12.2   139  40.1  38.8  95.2
2017-03-20 07:00  18.7  19.6   137  39.9  38.6  95.1
2017-03-20 06:00  18.7  20.6   145  39.7  38.5  95.3
2017-03-20 05:00  20.2  22.6   142  40.1  37.7  91.1
2017-03-20 04:00  14.0  15.0   119  39.6  36.9  89.9
2017-03-20 03:00  11.1  11.5    88  42.4  35.7  76.8
2017-03-20 02:00  12.1  13.0   199  49.1  34.6  56.9
2017-03-20 01:00  18.9  21.2   199  48.6  34.2  57.2
2017-03-20 00:00  24.1  25.7   187  47.3  33.8  59.1
2017-03-19 23:00  20.2  21.4   163  43.7  35.0  71.0
2017-03-19 22:00  17.3  18.7   160  42.3  35.6  77.1
2017-03-19 21:00  13.8  14.0   166  44.1  35.3  70.9
2017-03-19 20:00   4.9   7.2   158  40.6  35.0  80.1
2017-03-19 19:00  18.1  19.2   120  39.6  33.7  79.2
2017-03-19 18:00  13.2  14.2   107  38.8  33.7  81.5
2017-03-19 17:00  14.6  15.2   104  37.9  33.6  84.0
2017-03-19 16:00  13.0  13.8    95  37.6  31.9  79.6
2017-03-19 15:00  10.7  11.1    87  37.4  31.6  79.4
2017-03-19 14:00   9.3   9.7   103  37.4  32.8  83.2
2017-03-19 13:00   8.6   9.1   121  38.3  33.9  84.1
2017-03-19 12:00   5.2   6.4   150  38.7  34.9  86.1
2017-03-19 11:00   2.9   3.1   132  39.4  34.1  81.3
2017-03-19 10:00   4.3   4.7    69  37.2  32.9  84.1
2017-03-19 09:00   2.9   3.1    84  37.2  33.2  85.1
2017-03-19 08:00   3.3   3.7    68  37.6  33.0  83.5
2017-03-19 07:00   3.7   4.1    40  36.5  33.7  89.5
2017-03-19 06:00   4.5   4.9   346  36.5  34.6  92.9
2017-03-19 05:00   5.6   6.0   342  36.3  34.1  91.7
2017-03-19 04:00   8.4   8.9   357  36.5  33.0  86.9
2017-03-19 02:00  10.9  12.2   353  37.4  32.3  81.6
2017-03-19 01:00  11.5  11.9   346  38.1  32.1  78.6
2017-03-19 00:00  12.2  13.2   342  39.0  31.8  75.1
2017-03-18 23:00  13.2  14.6   334  40.6  30.5  66.8
2017-03-18 22:00   8.9   9.3   318  40.8  31.3  68.5
2017-03-18 21:00   6.8   7.4   311  41.0  31.1  67.6
2017-03-18 20:00   6.8   7.4   320  39.9  32.2  73.7
2017-03-18 19:00  10.7  11.1   339  39.6  32.1  74.3